Time;durP1;ratioP1;P1;durP2;ratioP2;P2;SDS_P1;SDS_P2;PMS_P1;PMS_P2;Temp;Humidity;BMP_temperature;BMP_pressure;BME280_temperature;BME280_humidity;BME280_pressure;Samples;Min_cycle;Max_cycle;Signal;HPM_P1;HPM_P2
2022/10/06 00:01:14;;;;;;;8.10;5.10;;;;;;;12.10;100.00;97253.47;5061246;28;20209;-77
2022/10/06 00:03:42;;;;;;;5.43;4.27;;;;;;;12.12;100.00;97253.25;5062240;28;20197;-77
2022/10/06 00:06:11;;;;;;;5.20;3.57;;;;;;;12.12;100.00;97255.94;5060254;28;20216;-77
2022/10/06 00:08:40;;;;;;;8.57;4.13;;;;;;;12.15;100.00;97262.81;5062004;28;20209;-77
2022/10/06 00:11:08;;;;;;;4.77;3.47;;;;;;;12.16;100.00;97264.47;5061543;28;20211;-77
2022/10/06 00:13:37;;;;;;;6.10;3.43;;;;;;;12.10;100.00;97256.16;5055105;28;20209;-77
2022/10/06 00:16:09;;;;;;;4.73;3.10;;;;;;;12.11;100.00;97268.66;5059489;28;20292;-77
2022/10/06 00:18:36;;;;;;;3.87;2.87;;;;;;;11.98;100.00;97263.34;5060326;28;20206;-78
2022/10/06 00:21:04;;;;;;;5.20;3.00;;;;;;;11.93;100.00;97270.44;5054138;28;20598;-77
2022/10/06 00:23:32;;;;;;;4.73;2.87;;;;;;;11.94;100.00;97272.09;5065350;28;20201;-77
2022/10/06 00:25:59;;;;;;;4.23;2.90;;;;;;;11.94;100.00;97270.22;5064136;28;20202;-77
2022/10/06 00:28:26;;;;;;;4.73;2.50;;;;;;;11.90;100.00;97271.72;5059728;28;20235;-77
2022/10/06 00:30:55;;;;;;;3.40;2.43;;;;;;;11.83;100.00;97272.75;5055113;28;20248;-77
2022/10/06 00:33:22;;;;;;;5.07;2.70;;;;;;;11.78;100.00;97278.00;5062710;28;20214;-77
2022/10/06 00:35:57;;;;;;;9.43;3.10;;;;;;;11.68;100.00;97278.41;5067870;28;20202;-77
2022/10/06 00:38:25;;;;;;;3.33;2.47;;;;;;;11.67;100.00;97276.75;5061031;28;20208;-77
2022/10/06 00:40:53;;;;;;;4.73;2.90;;;;;;;11.70;100.00;97276.34;5066553;28;20201;-77
2022/10/06 00:43:51;;;;;;;4.37;3.00;;;;;;;11.66;100.00;97280.50;5059564;28;20208;-77
2022/10/06 00:46:25;;;;;;;5.37;2.80;;;;;;;11.54;100.00;97283.06;4984001;28;20250;-77
2022/10/06 00:48:59;;;;;;;3.87;2.63;;;;;;;11.47;100.00;97276.84;5045354;28;20217;-76
2022/10/06 00:51:28;;;;;;;2.77;2.50;;;;;;;11.51;100.00;97285.34;5059374;28;20217;-77
2022/10/06 00:53:56;;;;;;;3.17;2.43;;;;;;;11.55;100.00;97292.84;5060424;28;20209;-77
2022/10/06 00:56:25;;;;;;;4.60;2.87;;;;;;;11.52;100.00;97290.56;5062690;28;20217;-77
2022/10/06 00:58:53;;;;;;;10.43;2.77;;;;;;;11.54;100.00;97288.47;5064402;28;20193;-77
2022/10/06 01:01:20;;;;;;;3.37;2.83;;;;;;;11.50;100.00;97286.41;5060745;28;20220;-77
2022/10/06 01:03:51;;;;;;;5.43;2.70;;;;;;;11.44;100.00;97282.69;5058234;28;20205;-77
2022/10/06 01:06:19;;;;;;;5.27;2.90;;;;;;;11.42;100.00;97281.22;5052989;28;20302;-77
2022/10/06 01:08:46;;;;;;;5.93;3.03;;;;;;;11.40;100.00;97278.72;5064226;28;20214;-77
2022/10/06 01:11:14;;;;;;;6.47;3.30;;;;;;;11.43;100.00;97288.28;5064391;28;20208;-77
2022/10/06 01:13:45;;;;;;;3.97;2.53;;;;;;;11.38;100.00;97289.78;5067822;28;20265;-77
2022/10/06 01:16:18;;;;;;;5.47;2.80;;;;;;;11.38;100.00;97284.38;5066573;28;20325;-77
2022/10/06 01:18:47;;;;;;;4.30;3.07;;;;;;;11.28;100.00;97278.56;5066047;28;20201;-77
2022/10/06 01:21:20;;;;;;;4.67;2.97;;;;;;;11.29;100.00;97290.22;5064543;28;20198;-77
2022/10/06 01:23:49;;;;;;;4.23;2.90;;;;;;;11.25;100.00;97294.38;5064541;28;20213;-77
2022/10/06 01:26:19;;;;;;;3.33;2.47;;;;;;;11.24;100.00;97288.13;5065422;28;20236;-77
2022/10/06 01:28:47;;;;;;;3.70;2.73;;;;;;;11.20;100.00;97302.28;5068289;28;20237;-77
2022/10/06 01:31:15;;;;;;;6.07;3.00;;;;;;;11.14;100.00;97295.88;5065365;28;20205;-77
2022/10/06 01:33:43;;;;;;;3.63;3.17;;;;;;;11.18;100.00;97309.78;5063858;28;20225;-77
2022/10/06 01:36:12;;;;;;;3.10;2.57;;;;;;;11.18;100.00;97307.06;5061586;28;20194;-77
2022/10/06 01:38:39;;;;;;;3.43;2.70;;;;;;;11.16;100.00;97311.84;5066836;28;20236;-77
2022/10/06 01:41:08;;;;;;;3.10;2.80;;;;;;;11.14;100.00;97317.50;5064551;28;20185;-77
2022/10/06 01:43:35;;;;;;;5.13;3.20;;;;;;;11.17;100.00;97313.50;5065222;28;20216;-77
2022/10/06 01:46:04;;;;;;;2.90;2.70;;;;;;;11.19;100.00;97309.56;5059072;28;20205;-77
2022/10/06 01:48:31;;;;;;;7.53;3.07;;;;;;;11.21;100.00;97312.91;5064115;28;20225;-77
2022/10/06 01:50:59;;;;;;;2.97;2.77;;;;;;;11.27;100.00;97314.75;5064075;28;20202;-77
2022/10/06 01:53:26;;;;;;;3.97;3.10;;;;;;;11.24;100.00;97317.88;5065272;28;20333;-77
2022/10/06 01:55:58;;;;;;;4.70;3.20;;;;;;;11.17;100.00;97318.91;5064546;28;20486;-77
2022/10/06 01:58:27;;;;;;;6.00;3.30;;;;;;;11.12;100.00;97316.03;5068601;28;20205;-77
2022/10/06 02:00:55;;;;;;;5.50;3.37;;;;;;;11.07;100.00;97313.94;5064765;28;20204;-77
2022/10/06 02:03:22;;;;;;;3.63;3.30;;;;;;;11.07;100.00;97313.94;5065448;28;20251;-77
2022/10/06 02:05:49;;;;;;;5.70;3.70;;;;;;;11.00;100.00;97319.38;5063989;28;20202;-77
2022/10/06 02:08:16;;;;;;;5.60;2.40;;;;;;;10.97;100.00;97316.25;5064215;28;20354;-77
2022/10/06 02:10:43;;;;;;;6.10;2.87;;;;;;;10.99;100.00;97324.97;5066045;28;20231;-77
2022/10/06 02:13:19;;;;;;;4.47;3.87;;;;;;;10.96;100.00;97322.72;5064033;28;20331;-77
2022/10/06 02:15:47;;;;;;;5.70;3.77;;;;;;;10.95;100.00;97327.28;5064415;28;20268;-77
2022/10/06 02:18:14;;;;;;;5.63;2.70;;;;;;;10.91;100.00;97322.47;5064040;28;20228;-77
2022/10/06 02:20:41;;;;;;;5.87;3.30;;;;;;;10.89;100.00;97321.84;5057629;28;20214;-77
2022/10/06 02:23:08;;;;;;;3.13;2.70;;;;;;;10.94;100.00;97322.06;5064204;28;20218;-77
2022/10/06 02:25:35;;;;;;;4.03;2.50;;;;;;;10.96;100.00;97318.13;5065133;28;20212;-77
2022/10/06 02:28:02;;;;;;;4.60;2.73;;;;;;;10.96;100.00;97322.72;5051143;28;20225;-77
2022/10/06 02:30:30;;;;;;;3.73;3.00;;;;;;;10.93;100.00;97326.66;5063287;28;20301;-77
2022/10/06 02:32:58;;;;;;;5.33;2.67;;;;;;;11.03;100.00;97326.22;5065675;28;20213;-77
2022/10/06 02:35:25;;;;;;;2.77;2.20;;;;;;;11.04;100.00;97330.59;5064310;28;20202;-77
2022/10/06 02:37:52;;;;;;;3.77;3.00;;;;;;;11.08;100.00;97331.81;5052402;28;20305;-77
2022/10/06 02:40:21;;;;;;;3.70;3.00;;;;;;;11.13;100.00;97332.03;5064061;28;20209;-77
2022/10/06 02:42:48;;;;;;;6.53;3.00;;;;;;;11.12;100.00;97326.84;5064880;28;20221;-77
2022/10/06 02:45:18;;;;;;;5.43;2.97;;;;;;;11.13;100.00;97326.63;5062906;28;20201;-77
2022/10/06 02:47:45;;;;;;;6.33;3.47;;;;;;;11.10;100.00;97335.16;5050099;28;21863;-77
2022/10/06 02:50:13;;;;;;;3.87;2.87;;;;;;;11.08;100.00;97333.69;5065718;28;20201;-77
2022/10/06 02:52:41;;;;;;;4.87;2.50;;;;;;;11.10;100.00;97334.31;5065297;28;20206;-77
2022/10/06 02:55:10;;;;;;;2.53;2.10;;;;;;;11.13;100.00;97345.56;5062737;28;20201;-77
2022/10/06 02:57:37;;;;;;;3.83;2.53;;;;;;;11.20;100.00;97340.97;5063212;28;20209;-77
2022/10/06 03:00:06;;;;;;;5.43;3.40;;;;;;;11.30;100.00;97346.78;5070971;28;20210;-77
2022/10/06 03:02:34;;;;;;;8.17;5.43;;;;;;;11.42;100.00;97351.53;5064485;28;20212;-77
2022/10/06 03:05:01;;;;;;;5.63;4.03;;;;;;;11.46;100.00;97355.50;5065563;28;20213;-77
2022/10/06 03:07:30;;;;;;;4.50;3.60;;;;;;;11.49;100.00;97347.78;5064686;28;20312;-77
2022/10/06 03:09:58;;;;;;;5.63;2.60;;;;;;;11.50;100.00;97345.91;5062281;28;20209;-77
2022/10/06 03:12:26;;;;;;;2.80;2.43;;;;;;;11.46;100.00;97355.50;5058859;28;20224;-77
2022/10/06 03:14:53;;;;;;;5.27;2.83;;;;;;;11.47;100.00;97357.16;5063968;28;20313;-77
2022/10/06 03:17:21;;;;;;;3.10;2.17;;;;;;;11.50;100.00;97354.84;5065436;28;20293;-77
2022/10/06 03:19:53;;;;;;;6.43;2.40;;;;;;;11.52;100.00;97355.47;5062800;28;20256;-77
2022/10/06 03:22:20;;;;;;;3.07;2.23;;;;;;;11.47;100.00;97351.75;5062837;28;20201;-77
2022/10/06 03:24:54;;;;;;;2.80;2.40;;;;;;;11.46;100.00;97356.31;5059131;28;20289;-77
2022/10/06 03:27:22;;;;;;;3.77;2.07;;;;;;;11.46;100.00;97364.44;5080482;28;20217;-77
2022/10/06 03:29:50;;;;;;;3.93;2.13;;;;;;;11.47;100.00;97357.16;5064310;28;20259;-77
2022/10/06 03:32:19;;;;;;;3.03;2.43;;;;;;;11.53;100.00;97359.00;5058824;28;20324;-77
2022/10/06 03:34:46;;;;;;;5.30;2.33;;;;;;;11.51;100.00;97361.91;5063100;28;20215;-77
2022/10/06 03:37:17;;;;;;;4.97;2.80;;;;;;;11.51;100.00;97358.38;5060043;28;20209;-77
2022/10/06 03:39:45;;;;;;;3.37;2.20;;;;;;;11.49;100.00;97352.34;5057362;28;20304;-77
2022/10/06 03:42:13;;;;;;;2.63;2.23;;;;;;;11.48;100.00;97356.13;5060735;28;20259;-77
2022/10/06 03:44:40;;;;;;;4.00;2.70;;;;;;;11.43;100.00;97355.91;5058033;28;20205;-77
2022/10/06 03:47:08;;;;;;;4.10;2.73;;;;;;;11.37;100.00;97353.00;5063349;28;20221;-77
2022/10/06 03:49:37;;;;;;;3.20;2.70;;;;;;;11.35;100.00;97360.50;5063629;28;20248;-77
2022/10/06 03:52:05;;;;;;;4.97;2.57;;;;;;;11.32;100.00;97377.13;5061053;28;20198;-77
2022/10/06 03:54:37;;;;;;;3.63;2.40;;;;;;;11.29;100.00;97372.16;5058354;28;20233;-77
2022/10/06 03:57:04;;;;;;;3.03;2.67;;;;;;;11.22;100.00;97378.63;5061009;28;20206;-77
2022/10/06 03:59:33;;;;;;;3.37;2.57;;;;;;;11.18;100.00;97378.19;5064664;28;20198;-77
2022/10/06 04:02:02;;;;;;;2.93;2.60;;;;;;;11.18;100.00;97378.19;5069982;28;20202;-77
2022/10/06 04:04:34;;;;;;;4.17;2.30;;;;;;;11.15;100.00;97380.47;5053318;28;20267;-77
2022/10/06 04:07:07;;;;;;;6.90;2.97;;;;;;;11.04;100.00;97387.34;5051806;28;20205;-77
2022/10/06 04:09:35;;;;;;;2.97;2.63;;;;;;;10.99;100.00;97385.25;5065037;28;20221;-77
2022/10/06 04:12:02;;;;;;;5.33;2.80;;;;;;;10.87;100.00;97381.53;5062476;28;20232;-77
2022/10/06 04:14:33;;;;;;;4.00;2.80;;;;;;;10.83;100.00;97382.97;5049914;28;20282;-76
2022/10/06 04:17:00;;;;;;;3.60;2.90;;;;;;;10.77;100.00;97389.22;5062404;28;20205;-77
2022/10/06 04:19:33;;;;;;;6.53;2.50;;;;;;;10.75;100.00;97396.69;5064252;28;20205;-77
2022/10/06 04:22:00;;;;;;;5.57;2.90;;;;;;;10.74;100.00;97402.28;5060884;28;20210;-77
2022/10/06 04:24:27;;;;;;;3.90;2.83;;;;;;;10.73;100.00;97409.56;5061075;28;20205;-77
2022/10/06 04:27:26;;;;;;;4.30;2.67;;;;;;;10.68;100.00;97403.09;5056854;28;20229;-76
2022/10/06 04:29:44;;;;;;;6.63;2.60;;;;;;;10.65;100.00;97408.91;5056834;28;20223;-77
2022/10/06 04:32:13;;;;;;;4.23;2.73;;;;;;;10.58;100.00;97408.91;5062196;28;20243;-77
2022/10/06 04:34:41;;;;;;;7.27;2.73;;;;;;;10.60;100.00;97415.78;5063794;28;20382;-77
2022/10/06 04:37:09;;;;;;;3.97;2.63;;;;;;;10.61;100.00;97422.84;5064129;28;20212;-77
2022/10/06 04:39:37;;;;;;;2.53;2.10;;;;;;;10.63;100.00;97431.56;5063286;28;20229;-77
2022/10/06 04:42:05;;;;;;;4.07;2.63;;;;;;;10.69;100.00;97426.38;5060571;28;20266;-76
2022/10/06 04:44:32;;;;;;;4.83;3.17;;;;;;;10.63;100.00;97429.91;5066408;28;20231;-77
2022/10/06 04:47:03;;;;;;;5.83;3.80;;;;;;;10.52;100.00;97431.34;5062844;28;20216;-77
2022/10/06 04:49:30;;;;;;;3.37;2.93;;;;;;;10.48;100.00;97435.47;5065701;28;20233;-77
2022/10/06 04:51:57;;;;;;;5.97;3.27;;;;;;;10.47;100.00;97434.63;5060598;28;20204;-77
2022/10/06 04:54:25;;;;;;;5.37;2.97;;;;;;;10.48;100.00;97439.00;5078776;28;20224;-77
2022/10/06 04:56:57;;;;;;;5.40;3.23;;;;;;;10.49;100.00;97443.38;5060064;28;20242;-77
2022/10/06 05:00:21;;;;;;;8.53;4.10;;;;;;;10.48;100.00;97447.09;5050627;28;20197;-76
2022/10/06 05:02:17;;;;;;;4.50;3.53;;;;;;;10.45;100.00;97450.22;5060627;28;20277;-77
2022/10/06 05:04:46;;;;;;;4.17;3.77;;;;;;;10.45;100.00;97449.38;5065386;28;20214;-77
2022/10/06 05:07:15;;;;;;;6.00;3.67;;;;;;;10.41;100.00;97457.03;5058097;28;20216;-77
2022/10/06 05:09:42;;;;;;;5.07;3.03;;;;;;;10.38;100.00;97457.44;5061373;28;20309;-77
2022/10/06 05:12:11;;;;;;;5.00;3.23;;;;;;;10.33;100.00;97462.63;5060584;28;20316;-76
2022/10/06 05:14:40;;;;;;;8.53;3.87;;;;;;;10.30;100.00;97468.41;5066506;28;20232;-77
2022/10/06 05:17:06;;;;;;;4.70;3.60;;;;;;;10.23;100.00;97483.75;5059979;28;20241;-76
2022/10/06 05:19:36;;;;;;;5.80;3.60;;;;;;;10.21;100.00;97469.63;5059425;28;20262;-77
2022/10/06 05:22:04;;;;;;;5.13;3.80;;;;;;;10.22;100.00;97471.28;5061003;28;20201;-77
2022/10/06 05:24:32;;;;;;;4.60;4.20;;;;;;;10.22;100.00;97465.88;5057918;28;20213;-76
2022/10/06 05:27:01;;;;;;;7.47;4.77;;;;;;;10.21;100.00;97475.84;5062355;28;20236;-77
2022/10/06 05:29:29;;;;;;;25.80;11.87;;;;;;;10.15;100.00;97483.91;5064140;28;20237;-77
2022/10/06 05:31:55;;;;;;;12.37;8.93;;;;;;;10.17;100.00;97484.53;5062883;28;20295;-77
2022/10/06 05:34:23;;;;;;;9.73;5.13;;;;;;;10.19;100.00;97482.50;5057287;28;20212;-77
2022/10/06 05:36:53;;;;;;;3.83;2.90;;;;;;;10.26;100.00;97487.94;5059691;28;20216;-77
2022/10/06 05:39:20;;;;;;;4.63;3.90;;;;;;;10.23;100.00;97490.00;5052532;28;20205;-77
2022/10/06 05:41:51;;;;;;;5.03;3.43;;;;;;;10.21;100.00;97486.66;5060594;28;20197;-79
2022/10/06 05:44:19;;;;;;;4.93;3.00;;;;;;;10.25;100.00;97487.09;5062051;28;20258;-77
2022/10/06 05:46:46;;;;;;;6.63;3.40;;;;;;;10.28;100.00;97492.09;5060786;28;20220;-77
2022/10/06 05:49:13;;;;;;;4.93;3.87;;;;;;;10.23;100.00;97497.25;5061452;28;20312;-77
2022/10/06 05:52:03;;;;;;;5.73;4.30;;;;;;;10.11;100.00;97485.34;5059707;28;20255;-76
2022/10/06 05:54:33;;;;;;;5.50;3.37;;;;;;;10.13;100.00;97483.25;5055174;28;20205;-77
2022/10/06 05:57:00;;;;;;;7.23;3.50;;;;;;;10.16;100.00;97478.31;5062851;28;20229;-77
2022/10/06 05:59:28;;;;;;;4.30;3.00;;;;;;;10.23;100.00;97486.44;5067969;28;20288;-77
2022/10/06 06:01:56;;;;;;;4.47;2.77;;;;;;;10.31;100.00;97498.94;5057434;28;20292;-77
2022/10/06 06:04:37;;;;;;;3.83;3.07;;;;;;;10.36;100.00;97500.03;5064629;28;20207;-77
2022/10/06 06:07:05;;;;;;;5.97;2.77;;;;;;;10.43;100.00;97509.00;5064872;28;20219;-77
2022/10/06 06:09:33;;;;;;;2.73;2.47;;;;;;;10.46;100.00;97515.88;5066626;28;20218;-77
2022/10/06 06:12:02;;;;;;;5.03;4.13;;;;;;;10.48;100.00;97520.00;5066831;28;20201;-77
2022/10/06 06:17:43;;;;;;;3.77;3.23;;;;;;;10.45;100.00;97531.22;5066844;28;20231;-77
2022/10/06 06:20:12;;;;;;;3.57;2.90;;;;;;;10.51;100.00;97538.53;5065146;28;20286;-77
2022/10/06 06:22:40;;;;;;;3.17;2.87;;;;;;;10.46;100.00;97532.88;5066456;28;20263;-77
2022/10/06 06:25:08;;;;;;;5.70;3.43;;;;;;;10.40;100.00;97535.53;5065727;28;20198;-77
2022/10/06 06:27:35;;;;;;;7.83;3.87;;;;;;;10.38;100.00;97535.75;5063691;28;20297;-76
2022/10/06 06:30:04;;;;;;;4.83;3.60;;;;;;;10.38;100.00;97535.75;5065151;28;20276;-76
2022/10/06 06:32:31;;;;;;;4.87;3.20;;;;;;;10.37;100.00;97546.78;5066151;28;20193;-76
2022/10/06 06:34:59;;;;;;;5.23;3.47;;;;;;;10.38;100.00;97557.34;5062073;28;20229;-76
2022/10/06 06:37:30;;;;;;;6.07;3.23;;;;;;;10.41;100.00;97556.94;5065097;28;20205;-76
2022/10/06 06:39:58;;;;;;;4.00;3.37;;;;;;;10.39;100.00;97559.00;5066642;28;20213;-76
2022/10/06 06:42:26;;;;;;;4.37;3.27;;;;;;;10.39;100.00;97558.19;5062107;28;20251;-76
2022/10/06 06:45:25;;;;;;;7.30;3.60;;;;;;;10.35;100.00;97563.16;5062204;28;20209;-76
2022/10/06 06:48:01;;;;;;;4.23;3.57;;;;;;;10.34;100.00;97560.66;5064652;28;20197;-76
2022/10/06 06:50:28;;;;;;;5.87;3.40;;;;;;;10.36;100.00;97569.41;5066179;28;20221;-76
2022/10/06 06:52:55;;;;;;;4.30;3.03;;;;;;;10.37;100.00;97566.50;5063438;28;20292;-76
2022/10/06 06:55:24;;;;;;;6.40;3.73;;;;;;;10.41;100.00;97562.34;5062068;28;20217;-76
2022/10/06 06:57:51;;;;;;;6.03;3.37;;;;;;;10.36;100.00;97567.53;5065895;28;20197;-77
2022/10/06 07:00:18;;;;;;;3.90;3.47;;;;;;;10.35;100.00;97567.72;5063384;28;20273;-76
2022/10/06 07:02:54;;;;;;;5.13;3.27;;;;;;;10.32;100.00;97566.25;5067835;28;20204;-79
2022/10/06 07:05:22;;;;;;;4.67;2.90;;;;;;;10.37;100.00;97585.41;5061470;28;20299;-79
2022/10/06 07:07:49;;;;;;;4.67;2.93;;;;;;;10.37;100.00;97582.69;5062152;28;20265;-79
2022/10/06 07:10:16;;;;;;;3.83;2.80;;;;;;;10.33;100.00;97576.03;5057739;28;20221;-79
2022/10/06 07:12:45;;;;;;;5.43;3.20;;;;;;;10.36;100.00;97570.22;5064535;28;20210;-79
2022/10/06 07:26:18;;;;;;;4.57;2.70;;;;;;;10.46;100.00;97567.97;5059665;28;20229;-79
2022/10/06 07:28:48;;;;;;;4.00;2.70;;;;;;;10.50;100.00;97561.16;5060583;28;20225;-79
2022/10/06 07:31:17;;;;;;;3.57;2.70;;;;;;;10.58;100.00;97569.09;5065591;28;20235;-79
2022/10/06 07:33:45;;;;;;;5.77;3.17;;;;;;;10.65;100.00;97568.28;5064498;28;20218;-79
2022/10/06 07:36:12;;;;;;;5.40;3.40;;;;;;;10.72;100.00;97569.16;5050083;28;20203;-76
2022/10/06 07:38:40;;;;;;;6.13;3.93;;;;;;;10.74;100.00;97562.50;5067307;28;20585;-76
2022/10/06 07:41:07;;;;;;;10.33;4.63;;;;;;;10.67;100.00;97566.22;5056211;28;20212;-76
2022/10/06 07:43:35;;;;;;;5.40;4.10;;;;;;;10.63;100.00;97560.41;5054674;28;20194;-76
2022/10/06 07:46:03;;;;;;;5.57;3.80;;;;;;;10.63;100.00;97556.88;5058289;28;20237;-76
2022/10/06 07:48:37;;;;;;;5.57;3.33;;;;;;;10.67;100.00;97550.00;5066151;28;20254;-76
2022/10/06 07:51:12;;;;;;;4.97;2.97;;;;;;;10.73;100.00;97554.59;5066510;28;20302;-79
2022/10/06 07:53:40;;;;;;;4.27;3.00;;;;;;;10.74;100.00;97553.56;5056731;28;20271;-79
2022/10/06 07:56:30;;;;;;;6.87;2.90;;;;;;;10.79;100.00;97561.91;5066094;28;20202;-79
2022/10/06 07:58:58;;;;;;;5.43;3.40;;;;;;;10.80;100.00;97555.47;5058772;28;20210;-79
2022/10/06 08:01:28;;;;;;;3.90;3.00;;;;;;;10.76;100.00;97546.09;5069549;28;20271;-77
2022/10/06 08:03:55;;;;;;;2.50;2.20;;;;;;;10.90;100.00;97558.63;5064047;28;20210;-76
2022/10/06 08:06:23;;;;;;;7.33;3.10;;;;;;;10.87;100.00;97556.34;5062183;28;20197;-76
2022/10/06 08:08:52;;;;;;;4.13;3.50;;;;;;;10.88;100.00;97547.19;5067536;28;20208;-76
2022/10/06 08:11:21;;;;;;;3.27;2.37;;;;;;;10.99;100.00;97555.53;5062134;28;20296;-76
2022/10/06 08:13:49;;;;;;;2.80;2.10;;;;;;;10.95;100.00;97531.81;5065229;28;20201;-76
2022/10/06 08:16:18;;;;;;;3.53;2.20;;;;;;;11.00;100.00;97537.44;5064477;28;20241;-76
2022/10/06 08:18:52;;;;;;;3.33;2.53;;;;;;;11.11;100.00;97536.03;5065881;28;20212;-76
2022/10/06 08:21:21;;;;;;;5.27;2.50;;;;;;;11.29;100.00;97547.91;5064166;28;20212;-76
2022/10/06 08:23:49;;;;;;;4.03;2.13;;;;;;;11.47;100.00;97538.38;5067353;28;20212;-76
2022/10/06 08:26:18;;;;;;;2.17;1.97;;;;;;;11.64;100.00;97531.50;5057978;28;20228;-76
2022/10/06 08:28:47;;;;;;;3.03;2.30;;;;;;;11.80;100.00;97517.59;5057847;28;20281;-76
2022/10/06 08:31:16;;;;;;;2.83;2.53;;;;;;;12.03;100.00;97512.56;5062951;28;20266;-76
2022/10/06 08:33:44;;;;;;;4.57;2.20;;;;;;;12.36;100.00;97519.75;5062864;28;20240;-77
2022/10/06 08:36:15;;;;;;;3.07;1.93;;;;;;;12.58;100.00;97528.47;5065607;28;20197;-76
2022/10/06 08:38:49;;;;;;;2.20;2.00;;;;;;;12.81;100.00;97529.59;5062396;28;20224;-76
2022/10/06 08:41:19;;;;;;;2.20;2.00;;;;;;;13.02;100.00;97523.00;5063598;28;20254;-76
2022/10/06 08:43:50;;;;;;;2.40;2.20;;;;;;;13.20;100.00;97523.16;5064964;28;20300;-76
2022/10/06 08:46:20;;;;;;;2.97;2.00;;;;;;;13.33;100.00;97530.38;5063875;28;20205;-76
2022/10/06 08:48:47;;;;;;;5.63;2.13;;;;;;;13.53;100.00;97530.22;5061794;28;20217;-76
2022/10/06 08:51:30;;;;;;;4.00;2.20;;;;;;;13.73;100.00;97524.66;5064330;28;20225;-76
2022/10/06 08:54:08;;;;;;;2.03;1.83;;;;;;;13.86;100.00;97521.84;5062889;28;20240;-76
2022/10/06 08:56:47;;;;;;;4.53;1.50;;;;;;;14.11;100.00;97521.81;5052778;28;20216;-76
2022/10/06 08:59:15;;;;;;;4.80;1.93;;;;;;;14.33;100.00;97517.59;5054360;28;20241;-76
2022/10/06 09:01:46;;;;;;;3.70;1.80;;;;;;;14.55;100.00;97521.56;5054667;28;20201;-76
2022/10/06 09:04:21;;;;;;;4.03;2.37;;;;;;;14.73;100.00;97513.41;5065326;28;20300;-76
2022/10/06 09:07:02;;;;;;;3.37;2.33;;;;;;;14.89;100.00;97517.38;5057339;28;20209;-76
2022/10/06 09:09:53;;;;;;;2.07;1.80;;;;;;;15.06;100.00;97509.41;5054557;28;20217;-76
2022/10/06 09:12:27;;;;;;;4.47;2.23;;;;;;;15.21;100.00;97501.69;5063178;28;20201;-76
2022/10/06 09:14:57;;;;;;;2.80;1.90;;;;;;;15.36;100.00;97502.06;5054712;28;20244;-76
2022/10/06 09:17:29;;;;;;;6.13;2.07;;;;;;;15.52;100.00;97500.56;5053581;28;20244;-76
2022/10/06 09:20:01;;;;;;;1.80;1.70;;;;;;;15.76;100.00;97502.28;5058198;28;20286;-76
2022/10/06 09:22:32;;;;;;;2.00;1.80;;;;;;;15.94;100.00;97493.19;5063834;28;20215;-76
2022/10/06 09:25:14;;;;;;;3.23;2.00;;;;;;;16.07;100.00;97486.69;5064197;28;20213;-77
2022/10/06 09:27:43;;;;;;;4.33;2.50;;;;;;;16.23;99.80;97484.09;5049172;28;20280;-76
2022/10/06 09:30:12;;;;;;;2.97;1.97;;;;;;;16.38;94.37;97485.47;5049330;28;20230;-76
2022/10/06 09:32:46;;;;;;;2.57;1.80;;;;;;;16.56;95.92;97486.16;5074818;28;20202;-76
2022/10/06 09:35:18;;;;;;;6.10;2.00;;;;;;;16.77;97.32;97483.88;5061896;28;20309;-77
2022/10/06 09:38:02;;;;;;;5.40;2.37;;;;;;;17.00;96.20;97484.63;5066947;28;20213;-77
2022/10/06 09:40:38;;;;;;;3.07;2.10;;;;;;;17.20;94.53;97486.91;5063282;28;20229;-77
2022/10/06 09:43:18;;;;;;;2.87;2.23;;;;;;;17.37;94.47;97482.31;5070498;28;20201;-76
2022/10/06 09:45:45;;;;;;;3.43;2.00;;;;;;;17.45;92.08;97478.34;5062602;28;20220;-79
2022/10/06 09:48:19;;;;;;;4.67;2.27;;;;;;;17.62;91.94;97478.38;5064952;28;20201;-78
2022/10/06 09:51:08;;;;;;;4.23;2.10;;;;;;;17.71;90.02;97468.69;5056446;28;20323;-78
2022/10/06 09:53:38;;;;;;;6.27;1.90;;;;;;;17.84;90.29;97476.59;5062758;28;20224;-77
2022/10/06 09:56:14;;;;;;;5.93;2.27;;;;;;;18.04;88.85;97470.59;5057602;28;20259;-77
2022/10/06 09:58:55;;;;;;;3.47;2.10;;;;;;;18.13;87.11;97464.44;5058124;28;20197;-78
2022/10/06 10:01:25;;;;;;;7.50;2.60;;;;;;;18.24;86.48;97462.69;5067981;28;20217;-77
2022/10/06 10:03:59;;;;;;;6.20;2.60;;;;;;;18.34;83.73;97457.38;5059844;28;20213;-78
2022/10/06 10:06:28;;;;;;;3.33;2.30;;;;;;;18.42;81.77;97451.47;5068565;28;20205;-78
2022/10/06 10:09:27;;;;;;;3.00;2.33;;;;;;;18.58;79.09;97444.31;5059847;28;20201;-78
2022/10/06 10:15:03;;;;;;;2.67;2.40;;;;;;;19.01;83.12;97437.13;5046029;28;20238;-77
2022/10/06 10:17:47;;;;;;;3.50;2.63;;;;;;;19.14;82.64;97440.28;5065391;28;20274;-78
2022/10/06 10:20:27;;;;;;;4.40;2.30;;;;;;;19.24;82.51;97442.31;5059970;28;20269;-78
2022/10/06 10:22:56;;;;;;;3.08;2.08;;;;;;;19.37;79.80;97447.38;5063637;28;20202;-77
2022/10/06 10:25:58;;;;;;;2.83;2.38;;;;;;;19.49;80.63;97442.56;5063869;28;20208;-77
2022/10/06 10:29:00;;;;;;;5.13;2.58;;;;;;;19.63;79.48;97445.72;5029434;28;20208;-78
2022/10/06 10:31:37;;;;;;;7.10;2.63;;;;;;;19.79;79.15;97449.41;5050720;28;20248;-77
2022/10/06 10:34:13;;;;;;;3.35;2.45;;;;;;;19.89;79.70;97442.09;5065509;28;20292;-78
2022/10/06 10:36:49;;;;;;;3.07;2.23;;;;;;;19.98;79.91;97431.47;5066771;28;20204;-78
2022/10/06 10:39:25;;;;;;;3.15;2.50;;;;;;;20.20;80.52;97432.13;5070364;28;20197;-78
2022/10/06 10:41:56;;;;;;;2.67;2.42;;;;;;;20.57;79.58;97437.59;5067942;28;20209;-78
2022/10/06 10:44:30;;;;;;;4.57;2.47;;;;;;;20.82;76.64;97436.88;5065040;28;20273;-78
2022/10/06 10:47:11;;;;;;;4.70;2.13;;;;;;;20.97;75.37;97433.34;5063148;28;20238;-78
2022/10/06 10:49:42;;;;;;;2.65;2.20;;;;;;;21.04;73.11;97429.22;5064353;28;20209;-78
2022/10/06 10:52:15;;;;;;;5.00;2.35;;;;;;;21.14;73.37;97440.25;5057556;28;20375;-78
2022/10/06 10:54:49;;;;;;;4.22;2.47;;;;;;;21.13;72.92;97426.78;5066391;28;20209;-78
2022/10/06 10:57:20;;;;;;;3.38;2.20;;;;;;;21.29;72.55;97427.66;5067846;28;20205;-78
2022/10/06 10:59:58;;;;;;;4.90;2.55;;;;;;;21.37;71.42;97419.69;5062945;28;20299;-78
2022/10/06 11:02:26;;;;;;;3.80;1.95;;;;;;;21.33;70.08;97413.13;5065706;28;20215;-78
2022/10/06 11:04:58;;;;;;;2.53;2.10;;;;;;;21.22;69.64;97413.38;5065256;28;20201;-77
2022/10/06 11:07:30;;;;;;;3.33;2.13;;;;;;;21.29;68.93;97414.75;5065929;28;20217;-78
2022/10/06 11:10:04;;;;;;;5.15;2.30;;;;;;;21.43;68.75;97417.81;5062259;28;20604;-77
2022/10/06 11:13:09;;;;;;;3.08;2.00;;;;;;;21.56;69.49;97413.69;5067054;28;20197;-79
2022/10/06 11:15:50;;;;;;;2.60;2.00;;;;;;;21.63;67.06;97409.56;5046658;28;20238;-78
2022/10/06 11:18:29;;;;;;;2.42;2.08;;;;;;;21.87;68.46;97398.81;5060534;28;20194;-79
2022/10/06 11:21:00;;;;;;;3.55;2.13;;;;;;;22.01;67.67;97402.69;5067986;28;20193;-79
2022/10/06 11:23:45;;;;;;;3.47;2.30;;;;;;;22.20;66.65;97397.44;5063117;28;20278;-78
2022/10/06 11:26:29;;;;;;;7.53;2.20;;;;;;;22.31;66.21;97392.69;5062591;28;20205;-79
2022/10/06 11:29:05;;;;;;;4.82;2.20;;;;;;;22.54;67.52;97403.09;5058168;28;20217;-79
2022/10/06 11:31:38;;;;;;;6.30;2.40;;;;;;;22.43;66.11;97398.72;5060609;28;20232;-79
2022/10/06 11:34:06;;;;;;;6.68;2.38;;;;;;;22.67;65.71;97394.22;5060106;28;20242;-79
2022/10/06 11:36:43;;;;;;;3.50;2.20;;;;;;;22.61;65.64;97387.91;5065285;28;20220;-79
2022/10/06 11:39:19;;;;;;;3.72;2.40;;;;;;;22.60;65.05;97385.44;5066125;28;20231;-79
2022/10/06 11:41:51;;;;;;;3.70;2.20;;;;;;;22.58;65.30;97377.47;5063497;28;20201;-79
2022/10/06 11:44:32;;;;;;;3.80;2.40;;;;;;;22.40;68.08;97393.75;5062183;28;20205;-79
2022/10/06 11:47:05;;;;;;;3.47;2.33;;;;;;;22.42;66.73;97383.31;5063558;28;20205;-79
2022/10/06 11:49:59;;;;;;;3.88;2.47;;;;;;;22.58;67.11;97382.97;5052460;28;20217;-79
2022/10/06 11:52:44;;;;;;;4.10;2.25;;;;;;;22.64;66.56;97387.34;5063117;28;20216;-79
2022/10/06 11:55:19;;;;;;;2.70;2.33;;;;;;;22.82;67.59;97383.16;5064841;28;20210;-79
2022/10/06 11:58:09;;;;;;;3.33;2.40;;;;;;;22.78;66.66;97375.75;5060713;28;20225;-79
2022/10/06 12:00:48;;;;;;;4.40;2.53;;;;;;;22.84;66.84;97382.88;5064197;28;20223;-79
2022/10/06 12:03:46;;;;;;;3.88;2.47;;;;;;;22.92;67.36;97366.56;5058176;28;20222;-79